Stations météo

Publicité
Chillingham Barns, Grande-Bretagne (99196): Température de l'air & dewpoint: 13.04.2019 01:00:00 - 19.04.2019 01:00:00 (BST)Chillingham Barns, Grande-Bretagne (99196): Quantités de précipitations: 13.04.2019 01:00:00 - 19.04.2019 01:00:00 (BST)
Date & Time tt [°C] td [°C] rr [mm]
19.04.2019 01:00:00 6,3 5,7 0,0
19.04.2019 00:00:00 5,9 5,0 0,0
18.04.2019 23:00:00 7,4 6,1 0,0
18.04.2019 22:00:00 7,4 6,2 0,0
18.04.2019 21:00:00 7,7 6,0 0,0
18.04.2019 20:00:00 8,8 6,3 0,0
18.04.2019 19:00:00 10,3 7,0 0,0
18.04.2019 18:00:00 11,8 6,5 0,0
18.04.2019 17:00:00 13,3 7,3 0,0
18.04.2019 16:00:00 13,8 7,1 0,0
18.04.2019 15:00:00 14,1 6,5 0,0
18.04.2019 14:00:00 15,5 7,8 0,0
18.04.2019 13:00:00 15,8 6,6 0,0
18.04.2019 12:00:00 14,5 9,3 0,0
18.04.2019 11:00:00 12,5 8,4 0,0
18.04.2019 10:00:00 9,7 7,5 0,0
18.04.2019 09:00:00 7,3 7,1 0,0
18.04.2019 08:00:00 6,2 6,1 0,0
18.04.2019 07:00:00 5,0 4,8 0,0
18.04.2019 06:00:00 5,7 5,5 0,0
18.04.2019 05:00:00 5,8 5,6 0,0
18.04.2019 04:00:00 6,4 6,2 0,0
18.04.2019 03:00:00 6,5 6,3 0,0
18.04.2019 02:00:00 6,3 6,0 0,0
18.04.2019 01:00:00 6,1 5,8 0,0
18.04.2019 00:00:00 5,9 5,2 0,0
17.04.2019 23:00:00 6,6 6,0 0,0
17.04.2019 22:00:00 6,7 6,0 0,0
17.04.2019 21:00:00 6,1 4,6 0,0
17.04.2019 20:00:00 8,0 5,0 0,0
17.04.2019 19:00:00 9,3 5,6 0,0
17.04.2019 18:00:00 10,2 5,8 0,0
17.04.2019 17:00:00 10,8 5,4 0,0
17.04.2019 16:00:00 12,2 5,9 0,0
17.04.2019 15:00:00 12,1 5,1 0,0
17.04.2019 14:00:00 12,3 5,0 0,0
17.04.2019 13:00:00 12,3 4,7 0,0
17.04.2019 12:00:00 11,6 6,5 0,0
17.04.2019 11:00:00 9,6 6,1 0,0
17.04.2019 10:00:00 8,2 5,3 0,0
17.04.2019 09:00:00 7,5 5,2 0,0
17.04.2019 08:00:00 7,2 5,2 0,0
17.04.2019 07:00:00 6,2 4,8 0,0
17.04.2019 06:00:00 6,0 4,4 0,0
17.04.2019 05:00:00 6,2 4,3 0,0
17.04.2019 04:00:00 6,2 4,3 0,0
17.04.2019 03:00:00 6,1 4,3 0,0
17.04.2019 02:00:00 6,0 4,2 0,0
17.04.2019 01:00:00 6,1 4,0 0,0
17.04.2019 00:00:00 6,2 4,2 0,0
16.04.2019 23:00:00 6,2 4,2 0,0
16.04.2019 22:00:00 6,4 4,2 0,0
16.04.2019 21:00:00 6,6 4,2 0,0
16.04.2019 20:00:00 6,8 4,4 0,0
16.04.2019 19:00:00 7,3 4,8 0,0
16.04.2019 18:00:00 8,0 5,2 0,0
16.04.2019 17:00:00 8,4 5,0 0,0
16.04.2019 16:00:00 9,0 5,7 0,0
16.04.2019 15:00:00 8,8 5,4 0,0
16.04.2019 14:00:00 8,7 5,4 0,0
16.04.2019 13:00:00 8,4 5,3 0,0
16.04.2019 12:00:00 8,3 5,4 0,0
16.04.2019 11:00:00 8,3 5,6 0,0
16.04.2019 10:00:00 8,0 5,4 0,0
16.04.2019 09:00:00 8,0 5,6 0,0
16.04.2019 08:00:00 7,8 5,5 0,0
16.04.2019 07:00:00 7,2 5,4 0,0
16.04.2019 06:00:00 7,2 5,4 0,0
16.04.2019 05:00:00 7,1 5,4 0,0
16.04.2019 04:00:00 7,0 5,4 0,0
16.04.2019 03:00:00 7,0 5,2 0,0
16.04.2019 02:00:00 7,0 5,1 0,0
16.04.2019 01:00:00 6,8 5,0 0,0
16.04.2019 00:00:00 6,7 5,1 0,0
15.04.2019 23:00:00 6,7 4,8 0,0
15.04.2019 22:00:00 6,7 4,5 0,0
15.04.2019 21:00:00 6,8 4,1 0,0
15.04.2019 20:00:00 6,7 4,2 0,0
15.04.2019 19:00:00 6,9 4,2 0,0
15.04.2019 18:00:00 7,2 4,6 0,0
15.04.2019 17:00:00 7,2 4,7 0,0
15.04.2019 16:00:00 7,4 4,3 0,0
15.04.2019 15:00:00 7,6 3,4 0,0
15.04.2019 14:00:00 7,6 4,3 0,0
15.04.2019 13:00:00 9,0 1,1 0,0
15.04.2019 12:00:00 7,8 2,4 0,0
15.04.2019 11:00:00 7,4 1,7 0,0
15.04.2019 10:00:00 6,3 1,8 0,0
15.04.2019 09:00:00 6,2 2,1 0,0
15.04.2019 08:00:00 5,3 1,9 0,0
15.04.2019 07:00:00 5,1 1,6 0,0
15.04.2019 06:00:00 4,5 0,9 0,0
15.04.2019 05:00:00 3,9 0,7 0,0
15.04.2019 04:00:00 3,2 0,3 0,0
15.04.2019 03:00:00 3,5 0,6 0,0
15.04.2019 02:00:00 4,1 1,0 0,2
15.04.2019 01:00:00 4,1 1,5 0,0
15.04.2019 00:00:00 3,9 0,9 0,0
14.04.2019 23:00:00 4,5 1,3 0,0
14.04.2019 22:00:00 4,2 1,8 0,0
14.04.2019 21:00:00 4,0 2,0 0,0
14.04.2019 20:00:00 4,9 1,9 0,0
14.04.2019 19:00:00 5,4 1,4 0,0
14.04.2019 18:00:00 6,1 0,3 0,0
14.04.2019 17:00:00 6,0 0,5 0,0
14.04.2019 16:00:00 6,9 0,2 0,0
14.04.2019 15:00:00 6,9 0,4 0,0
14.04.2019 14:00:00 7,7 1,0 0,0
14.04.2019 13:00:00 7,5 1,1 0,0
14.04.2019 12:00:00 7,2 0,4 0,0
14.04.2019 11:00:00 7,5 -0,2 0,0
14.04.2019 10:00:00 6,4 1,4 0,0
14.04.2019 09:00:00 5,6 0,6 0,0
14.04.2019 08:00:00 3,1 -1,4 0,0
14.04.2019 07:00:00 3,1 -2,0 0,0
14.04.2019 06:00:00 3,1 -2,5 0,0
14.04.2019 05:00:00 3,9 -2,6 0,0
14.04.2019 04:00:00 3,9 -2,3 0,0
14.04.2019 03:00:00 3,7 -2,0 0,0
14.04.2019 02:00:00 4,4 -1,2 0,0
14.04.2019 01:00:00 3,4 -1,8 0,0
14.04.2019 00:00:00 3,4 -1,9 0,0
13.04.2019 23:00:00 3,1 -1,7 0,0
13.04.2019 22:00:00 3,5 -2,2 0,0
13.04.2019 21:00:00 4,4 -2,2 0,0
13.04.2019 20:00:00 4,7 -2,0 0,0
13.04.2019 19:00:00 5,2 -1,2 0,0
13.04.2019 18:00:00 6,2 -1,3 0,0
13.04.2019 17:00:00 7,8 1,1 0,0
13.04.2019 16:00:00 7,2 -0,4 0,0
13.04.2019 15:00:00 7,2 -1,6 0,0
13.04.2019 14:00:00 7,8 -1,7 0,0
13.04.2019 13:00:00 7,9 0,1 0,0
13.04.2019 12:00:00 6,3 -1,2 0,0
13.04.2019 11:00:00 6,2 -1,2 0,0
13.04.2019 10:00:00 5,7 -0,1 0,0
13.04.2019 09:00:00 5,4 0,6 0,0
13.04.2019 08:00:00 2,2 -1,8 0,0
13.04.2019 07:00:00 2,1 -1,7 0,0
13.04.2019 06:00:00 -1,0 -2,6 0,0
13.04.2019 05:00:00 -0,7 -3,3 0,0
13.04.2019 04:00:00 2,3 -3,2 0,0
13.04.2019 03:00:00 2,4 -2,1 0,0
13.04.2019 02:00:00 2,8 -1,6 0,0
13.04.2019 01:00:00 3,3 -1,1 0,0

tt = Température de l'air
td = dewpoint
rr = Quantités de précipitations

stations d'obs. à proximité